Time;durP1;ratioP1;P1;durP2;ratioP2;P2;SDS_P1;SDS_P2;PMS_P1;PMS_P2;Temp;Humidity;BMP_temperature;BMP_pressure;BME280_temperature;BME280_humidity;BME280_pressure;Samples;Min_cycle;Max_cycle;Signal;HPM_P1;HPM_P2
2022/07/23 00:00:47;;;;;;;20.67;11.38;;;;;;;;;;4950925;28;20065;-90
2022/07/23 00:03:12;;;;;;;21.27;10.93;;;;;;;;;;4954046;28;20027;-89
2022/07/23 00:05:38;;;;;;;18.42;10.43;;;;;;;;;;4951013;28;20046;-90
2022/07/23 00:08:06;;;;;;;21.65;10.85;;;;;;;;;;4967265;28;20039;-90
2022/07/23 00:10:32;;;;;;;20.38;10.27;;;;;;;;;;4967419;28;20071;-90
2022/07/23 00:12:57;;;;;;;20.17;11.00;;;;;;;;;;4951934;28;20133;-90
2022/07/23 00:15:23;;;;;;;18.55;10.40;;;;;;;;;;4951763;28;20024;-89
2022/07/23 00:17:49;;;;;;;16.70;9.82;;;;;;;;;;4951430;29;20551;-90
2022/07/23 00:20:14;;;;;;;15.98;9.95;;;;;;;;;;4965470;28;20047;-91
2022/07/23 00:22:50;;;;;;;17.95;10.63;;;;;;;;;;4965671;28;20073;-91
2022/07/23 00:25:16;;;;;;;20.55;10.43;;;;;;;;;;4952418;28;20047;-91
2022/07/23 00:27:41;;;;;;;19.42;10.45;;;;;;;;;;4950782;28;20137;-90
2022/07/23 00:30:07;;;;;;;19.48;11.13;;;;;;;;;;4950753;28;20035;-91
2022/07/23 00:32:53;;;;;;;21.23;11.27;;;;;;;;;;4960853;28;20162;-90
2022/07/23 00:35:21;;;;;;;17.45;10.60;;;;;;;;;;4969784;28;20443;-90
2022/07/23 00:37:46;;;;;;;21.60;10.30;;;;;;;;;;4953992;28;20111;-90
2022/07/23 00:40:12;;;;;;;14.43;9.23;;;;;;;;;;4951557;28;20463;-89
2022/07/23 00:42:38;;;;;;;16.70;9.20;;;;;;;;;;4951418;28;20495;-90
2022/07/23 00:45:04;;;;;;;17.48;9.27;;;;;;;;;;4954898;29;20035;-90
2022/07/23 00:47:29;;;;;;;16.83;9.50;;;;;;;;;;4951244;28;20474;-90
2022/07/23 00:49:55;;;;;;;21.35;10.30;;;;;;;;;;4953654;28;20529;-89
2022/07/23 00:52:20;;;;;;;18.98;10.32;;;;;;;;;;4953098;28;20045;-89
2022/07/23 00:54:46;;;;;;;18.80;9.63;;;;;;;;;;4957365;28;20059;-89
2022/07/23 00:57:12;;;;;;;19.85;8.60;;;;;;;;;;4972800;28;20042;-90
2022/07/23 00:59:39;;;;;;;19.90;10.45;;;;;;;;;;4957159;28;20047;-90
2022/07/23 01:02:04;;;;;;;21.20;10.77;;;;;;;;;;4969464;28;20046;-90
2022/07/23 01:04:30;;;;;;;17.63;10.15;;;;;;;;;;4971788;28;20039;-90
2022/07/23 01:06:55;;;;;;;16.58;9.60;;;;;;;;;;4953175;28;20058;-90
2022/07/23 01:09:21;;;;;;;21.77;10.65;;;;;;;;;;4967102;28;20106;-89
2022/07/23 01:11:46;;;;;;;16.90;9.65;;;;;;;;;;4968227;28;20027;-90
2022/07/23 01:14:17;;;;;;;22.15;10.57;;;;;;;;;;4951269;28;20035;-90
2022/07/23 01:16:44;;;;;;;23.52;10.23;;;;;;;;;;4945139;28;20043;-90
2022/07/23 01:19:10;;;;;;;18.80;9.75;;;;;;;;;;4950864;28;20046;-90
2022/07/23 01:21:41;;;;;;;18.15;9.85;;;;;;;;;;4966132;28;20118;-90
2022/07/23 01:24:07;;;;;;;17.23;9.65;;;;;;;;;;4953031;28;20494;-90
2022/07/23 01:26:33;;;;;;;21.80;9.02;;;;;;;;;;4965693;28;20047;-90
2022/07/23 01:28:58;;;;;;;19.90;9.65;;;;;;;;;;4950787;28;20039;-90
2022/07/23 01:31:24;;;;;;;18.52;9.98;;;;;;;;;;4965990;28;20062;-89
2022/07/23 01:33:50;;;;;;;16.75;9.32;;;;;;;;;;4968100;28;20036;-90
2022/07/23 01:36:15;;;;;;;21.55;9.70;;;;;;;;;;4952994;29;20023;-90
2022/07/23 01:38:40;;;;;;;23.63;10.80;;;;;;;;;;4950840;28;20049;-90
2022/07/23 01:41:06;;;;;;;24.35;11.77;;;;;;;;;;4946996;28;20043;-90
2022/07/23 01:43:31;;;;;;;23.63;11.40;;;;;;;;;;4951697;28;20455;-90
2022/07/23 01:45:57;;;;;;;26.63;12.57;;;;;;;;;;4951478;28;20031;-89
2022/07/23 01:48:22;;;;;;;23.30;11.85;;;;;;;;;;4951444;28;20035;-89
2022/07/23 01:50:48;;;;;;;20.88;11.63;;;;;;;;;;4952361;28;20042;-90
2022/07/23 01:53:14;;;;;;;26.77;12.05;;;;;;;;;;4967565;28;20478;-90
2022/07/23 01:55:41;;;;;;;26.27;11.88;;;;;;;;;;4951726;28;20066;-90
2022/07/23 01:58:06;;;;;;;23.10;11.02;;;;;;;;;;4950752;28;20054;-90
2022/07/23 02:00:32;;;;;;;24.08;10.23;;;;;;;;;;4948405;28;20031;-91
2022/07/23 02:03:00;;;;;;;21.15;10.00;;;;;;;;;;4952903;28;20380;-91
2022/07/23 02:05:28;;;;;;;24.38;10.88;;;;;;;;;;4951285;28;20418;-89
2022/07/23 02:07:54;;;;;;;20.25;10.48;;;;;;;;;;4961371;28;20126;-90
2022/07/23 02:10:20;;;;;;;21.17;10.18;;;;;;;;;;4951527;28;20115;-90
2022/07/23 02:12:45;;;;;;;19.50;11.65;;;;;;;;;;4948600;28;20074;-91
2022/07/23 02:15:10;;;;;;;22.60;11.02;;;;;;;;;;4948534;29;20038;-91
2022/07/23 02:17:36;;;;;;;22.00;11.05;;;;;;;;;;4951235;28;20039;-90
2022/07/23 02:20:02;;;;;;;24.50;9.95;;;;;;;;;;4965862;28;20550;-90
2022/07/23 02:22:28;;;;;;;20.38;10.05;;;;;;;;;;4952215;28;20050;-91
2022/07/23 02:24:53;;;;;;;20.85;9.45;;;;;;;;;;4952963;28;20423;-90
2022/07/23 02:27:18;;;;;;;20.02;9.48;;;;;;;;;;4947892;28;20027;-88
2022/07/23 02:29:44;;;;;;;21.15;10.40;;;;;;;;;;4950230;28;20517;-90
2022/07/23 02:32:09;;;;;;;17.55;9.25;;;;;;;;;;4949857;29;20127;-91
2022/07/23 02:34:34;;;;;;;20.30;10.50;;;;;;;;;;4966620;28;20110;-91
2022/07/23 02:37:00;;;;;;;18.88;9.10;;;;;;;;;;4950664;28;20066;-91
2022/07/23 02:39:26;;;;;;;18.05;10.35;;;;;;;;;;4950715;28;20117;-90
2022/07/23 02:41:51;;;;;;;17.02;9.27;;;;;;;;;;4947987;29;20051;-90
2022/07/23 02:44:16;;;;;;;23.98;10.90;;;;;;;;;;4951209;28;20145;-90
2022/07/23 02:46:42;;;;;;;20.27;9.50;;;;;;;;;;4949655;28;20124;-89
2022/07/23 02:49:07;;;;;;;17.38;9.85;;;;;;;;;;4950956;28;20107;-90
2022/07/23 02:51:33;;;;;;;23.95;10.38;;;;;;;;;;4962790;28;20102;-90
2022/07/23 02:53:58;;;;;;;19.83;10.07;;;;;;;;;;4952095;28;20030;-91
2022/07/23 02:56:23;;;;;;;17.98;9.65;;;;;;;;;;4950363;29;20098;-90
2022/07/23 02:58:49;;;;;;;21.05;10.43;;;;;;;;;;4951138;28;20111;-90
2022/07/23 03:01:14;;;;;;;20.13;9.68;;;;;;;;;;4964077;28;20074;-90
2022/07/23 03:03:40;;;;;;;18.98;10.02;;;;;;;;;;4950127;28;20118;-90
2022/07/23 03:06:05;;;;;;;19.27;9.82;;;;;;;;;;4950386;29;20443;-90
2022/07/23 03:08:31;;;;;;;19.30;10.38;;;;;;;;;;4949843;28;20043;-91
2022/07/23 03:10:56;;;;;;;19.00;8.63;;;;;;;;;;4950788;28;20032;-90
2022/07/23 03:13:21;;;;;;;15.13;8.40;;;;;;;;;;4946221;28;20507;-90
2022/07/23 03:15:47;;;;;;;19.92;9.73;;;;;;;;;;4951728;28;20062;-90
2022/07/23 03:18:12;;;;;;;17.35;9.43;;;;;;;;;;4949976;29;20122;-90
2022/07/23 03:20:38;;;;;;;18.98;9.85;;;;;;;;;;4959821;28;20143;-90
2022/07/23 03:23:03;;;;;;;21.40;10.43;;;;;;;;;;4947010;28;20427;-90
2022/07/23 03:25:28;;;;;;;21.10;11.48;;;;;;;;;;4949431;28;20053;-90
2022/07/23 03:27:53;;;;;;;22.08;10.40;;;;;;;;;;4966099;28;20086;-90
2022/07/23 03:30:19;;;;;;;20.17;9.93;;;;;;;;;;4949151;28;20066;-89
2022/07/23 03:32:44;;;;;;;20.80;9.50;;;;;;;;;;4951792;28;20043;-90
2022/07/23 03:35:10;;;;;;;20.17;10.52;;;;;;;;;;4947644;28;20425;-90
2022/07/23 03:37:36;;;;;;;18.55;9.90;;;;;;;;;;4950618;28;20093;-90
2022/07/23 03:40:01;;;;;;;20.90;10.95;;;;;;;;;;4949920;28;20064;-89
2022/07/23 03:42:27;;;;;;;19.73;9.95;;;;;;;;;;4948788;28;20588;-87
2022/07/23 03:44:52;;;;;;;19.30;10.80;;;;;;;;;;4943938;29;20059;-90
2022/07/23 03:47:21;;;;;;;18.83;9.75;;;;;;;;;;4949326;28;20038;-90
2022/07/23 03:49:47;;;;;;;19.13;9.95;;;;;;;;;;4963220;28;20031;-89
2022/07/23 03:52:13;;;;;;;21.13;10.88;;;;;;;;;;4951120;28;20750;-90
2022/07/23 03:54:38;;;;;;;21.83;10.30;;;;;;;;;;4952037;28;20070;-90
2022/07/23 03:57:04;;;;;;;19.38;10.88;;;;;;;;;;4960568;28;20028;-89
2022/07/23 03:59:29;;;;;;;18.38;11.10;;;;;;;;;;4965440;28;20039;-89
2022/07/23 04:01:54;;;;;;;18.75;9.98;;;;;;;;;;4964407;28;20038;-91
2022/07/23 04:04:20;;;;;;;21.00;10.95;;;;;;;;;;4950502;28;20802;-90
2022/07/23 04:06:45;;;;;;;18.60;10.93;;;;;;;;;;4951443;28;20044;-89
2022/07/23 04:09:11;;;;;;;19.65;9.77;;;;;;;;;;4950545;28;20023;-89
2022/07/23 04:11:36;;;;;;;23.45;10.63;;;;;;;;;;4950306;28;20065;-89
2022/07/23 04:14:02;;;;;;;24.55;11.45;;;;;;;;;;4951457;28;20055;-89
2022/07/23 04:16:28;;;;;;;22.20;11.10;;;;;;;;;;4950868;28;20804;-89
2022/07/23 04:18:53;;;;;;;21.00;11.18;;;;;;;;;;4948479;28;20047;-88
2022/07/23 04:21:19;;;;;;;18.90;10.77;;;;;;;;;;4947978;28;20030;-88
2022/07/23 04:23:44;;;;;;;19.17;10.10;;;;;;;;;;4965741;28;20130;-89
2022/07/23 04:26:09;;;;;;;21.08;10.40;;;;;;;;;;4947942;28;20076;-89
2022/07/23 04:28:35;;;;;;;17.33;8.98;;;;;;;;;;4948368;28;20418;-89
2022/07/23 04:31:00;;;;;;;17.27;9.52;;;;;;;;;;4952301;28;20039;-89
2022/07/23 04:33:26;;;;;;;22.65;9.63;;;;;;;;;;4954624;28;20023;-89
2022/07/23 04:35:51;;;;;;;21.45;10.25;;;;;;;;;;4953369;28;20102;-87
2022/07/23 04:38:16;;;;;;;18.05;9.38;;;;;;;;;;4954471;28;20031;-89
2022/07/23 04:40:42;;;;;;;18.25;10.02;;;;;;;;;;4966994;28;20047;-89
2022/07/23 04:43:07;;;;;;;26.20;10.43;;;;;;;;;;4952778;28;20087;-89
2022/07/23 04:45:32;;;;;;;20.45;10.90;;;;;;;;;;4952049;28;20039;-87
2022/07/23 04:47:58;;;;;;;19.30;9.88;;;;;;;;;;4953740;29;20110;-90
2022/07/23 04:50:23;;;;;;;19.33;10.00;;;;;;;;;;4954113;28;20035;-89
2022/07/23 04:52:49;;;;;;;19.95;9.45;;;;;;;;;;4951630;28;20086;-90
2022/07/23 04:55:15;;;;;;;24.65;10.90;;;;;;;;;;4968479;28;20086;-90
2022/07/23 04:57:40;;;;;;;18.95;10.38;;;;;;;;;;4950015;28;20043;-90
2022/07/23 05:00:07;;;;;;;19.40;9.98;;;;;;;;;;4952500;28;20019;-89
2022/07/23 05:02:32;;;;;;;24.42;10.57;;;;;;;;;;4952893;28;20510;-89
2022/07/23 05:04:58;;;;;;;21.88;10.25;;;;;;;;;;4952929;28;20039;-88
2022/07/23 05:07:24;;;;;;;21.63;10.20;;;;;;;;;;4952899;28;20035;-89
2022/07/23 05:09:49;;;;;;;17.52;9.70;;;;;;;;;;4952292;28;20054;-90
2022/07/23 05:12:14;;;;;;;17.17;9.52;;;;;;;;;;4970122;28;20051;-89
2022/07/23 05:14:40;;;;;;;17.73;10.18;;;;;;;;;;4956523;28;20036;-89
2022/07/23 05:17:07;;;;;;;18.30;10.05;;;;;;;;;;4981082;28;20043;-89
2022/07/23 05:19:32;;;;;;;20.33;10.52;;;;;;;;;;4961692;28;20053;-89
2022/07/23 05:21:57;;;;;;;23.05;11.30;;;;;;;;;;4969100;28;20507;-86
2022/07/23 05:24:23;;;;;;;19.77;10.30;;;;;;;;;;4957821;28;20473;-88
2022/07/23 05:26:48;;;;;;;22.10;11.23;;;;;;;;;;4958646;28;20098;-89
2022/07/23 05:29:14;;;;;;;24.10;11.32;;;;;;;;;;4964701;28;20035;-88
2022/07/23 05:31:39;;;;;;;26.92;11.40;;;;;;;;;;4949283;29;20027;-88
2022/07/23 05:34:04;;;;;;;23.67;11.85;;;;;;;;;;4951948;29;20035;-88
2022/07/23 05:36:32;;;;;;;25.58;11.27;;;;;;;;;;4950500;28;20029;-89
2022/07/23 05:38:57;;;;;;;23.95;12.18;;;;;;;;;;4952755;28;20074;-89
2022/07/23 05:41:22;;;;;;;26.38;12.23;;;;;;;;;;4949243;28;20050;-87
2022/07/23 05:43:48;;;;;;;23.50;11.70;;;;;;;;;;4950940;28;20059;-87
2022/07/23 05:46:13;;;;;;;22.20;11.10;;;;;;;;;;4951823;28;20162;-86
2022/07/23 05:48:38;;;;;;;23.80;11.30;;;;;;;;;;4949864;28;20098;-87
2022/07/23 05:51:06;;;;;;;26.55;11.73;;;;;;;;;;4951969;29;20506;-87
2022/07/23 05:53:34;;;;;;;22.08;11.82;;;;;;;;;;4950564;28;20117;-87
2022/07/23 05:55:59;;;;;;;25.30;12.73;;;;;;;;;;4949628;28;20035;-86
2022/07/23 05:58:25;;;;;;;24.00;11.63;;;;;;;;;;4962556;28;20042;-87
2022/07/23 06:00:50;;;;;;;24.55;11.75;;;;;;;;;;4947909;28;20043;-86
2022/07/23 06:03:16;;;;;;;25.33;12.60;;;;;;;;;;4948153;29;20046;-85
2022/07/23 06:05:41;;;;;;;25.85;12.05;;;;;;;;;;4950764;28;20732;-84
2022/07/23 06:08:06;;;;;;;24.42;12.27;;;;;;;;;;4947909;28;20042;-84
2022/07/23 06:10:32;;;;;;;26.20;12.10;;;;;;;;;;4962778;28;20129;-83
2022/07/23 06:12:57;;;;;;;28.88;12.95;;;;;;;;;;4947661;28;20037;-83
2022/07/23 06:15:23;;;;;;;24.38;11.98;;;;;;;;;;4947435;28;20054;-83
2022/07/23 06:17:48;;;;;;;20.23;11.65;;;;;;;;;;4961495;28;20506;-83
2022/07/23 06:20:13;;;;;;;22.70;11.82;;;;;;;;;;4947690;28;20032;-83
2022/07/23 06:22:39;;;;;;;22.50;11.05;;;;;;;;;;4946753;28;20042;-84
2022/07/23 06:25:05;;;;;;;26.33;11.02;;;;;;;;;;4947210;28;20035;-83
2022/07/23 06:27:30;;;;;;;24.13;10.98;;;;;;;;;;4948911;28;20055;-84
2022/07/23 06:29:56;;;;;;;23.00;12.70;;;;;;;;;;4948179;29;20061;-83
2022/07/23 06:32:21;;;;;;;23.25;11.27;;;;;;;;;;4946363;28;20035;-83
2022/07/23 06:34:47;;;;;;;22.55;11.13;;;;;;;;;;4947619;28;20065;-83
2022/07/23 06:37:12;;;;;;;24.30;10.68;;;;;;;;;;4940934;28;20039;-82
2022/07/23 06:39:37;;;;;;;23.48;11.30;;;;;;;;;;4947833;28;20485;-82
2022/07/23 06:42:03;;;;;;;24.08;11.77;;;;;;;;;;4945497;28;20075;-83
2022/07/23 06:44:28;;;;;;;23.15;12.13;;;;;;;;;;4948002;28;20043;-83
2022/07/23 06:46:54;;;;;;;26.25;12.02;;;;;;;;;;4947282;28;20036;-82
2022/07/23 06:49:19;;;;;;;20.95;11.27;;;;;;;;;;4946004;28;20043;-84
2022/07/23 06:51:45;;;;;;;29.48;12.38;;;;;;;;;;4946343;28;20082;-83
2022/07/23 06:54:10;;;;;;;23.52;11.98;;;;;;;;;;4948059;29;20062;-85
2022/07/23 06:56:35;;;;;;;25.50;12.30;;;;;;;;;;4942547;28;20549;-85
2022/07/23 06:59:01;;;;;;;28.95;12.45;;;;;;;;;;4946655;28;20031;-85
2022/07/23 07:01:26;;;;;;;27.15;11.95;;;;;;;;;;4946350;28;20039;-85
2022/07/23 07:03:52;;;;;;;23.42;12.20;;;;;;;;;;4946186;28;20411;-84
2022/07/23 07:06:17;;;;;;;23.88;12.40;;;;;;;;;;4945273;28;20023;-84
2022/07/23 07:08:43;;;;;;;25.13;12.57;;;;;;;;;;4943455;28;20078;-83
2022/07/23 07:11:09;;;;;;;22.30;12.02;;;;;;;;;;4939947;28;20042;-84
2022/07/23 07:13:35;;;;;;;24.70;11.32;;;;;;;;;;4946216;28;20118;-84
2022/07/23 07:16:00;;;;;;;23.10;11.80;;;;;;;;;;4941802;28;20542;-85
2022/07/23 07:18:26;;;;;;;23.15;13.35;;;;;;;;;;4939249;28;20031;-85
2022/07/23 07:20:51;;;;;;;22.48;12.20;;;;;;;;;;4957397;28;20058;-83
2022/07/23 07:23:16;;;;;;;20.00;11.25;;;;;;;;;;4941310;28;20499;-83
2022/07/23 07:25:42;;;;;;;23.40;11.73;;;;;;;;;;4955753;28;20043;-84
2022/07/23 07:28:07;;;;;;;25.58;11.77;;;;;;;;;;4942336;28;20043;-84
2022/07/23 07:30:33;;;;;;;20.40;11.55;;;;;;;;;;4940849;28;20031;-83
2022/07/23 07:32:58;;;;;;;24.92;12.60;;;;;;;;;;4942948;28;20582;-83
2022/07/23 07:35:24;;;;;;;26.52;12.27;;;;;;;;;;4940557;28;20447;-84
2022/07/23 07:37:50;;;;;;;28.52;12.43;;;;;;;;;;4938157;28;20471;-84
2022/07/23 07:40:15;;;;;;;24.15;12.82;;;;;;;;;;4942269;28;20059;-83
2022/07/23 07:42:48;;;;;;;21.80;11.95;;;;;;;;;;4939494;28;20426;-83
2022/07/23 07:45:13;;;;;;;22.60;12.20;;;;;;;;;;4938848;29;20043;-85
2022/07/23 07:47:38;;;;;;;24.15;11.38;;;;;;;;;;4941834;28;20045;-84
2022/07/23 07:50:04;;;;;;;21.55;11.30;;;;;;;;;;4940122;28;20035;-85
2022/07/23 07:52:30;;;;;;;20.20;10.75;;;;;;;;;;4943827;28;20046;-86
2022/07/23 07:54:55;;;;;;;27.80;10.32;;;;;;;;;;4941457;28;20106;-85
2022/07/23 07:57:20;;;;;;;24.30;11.32;;;;;;;;;;4939357;28;20035;-85
2022/07/23 07:59:46;;;;;;;21.13;11.48;;;;;;;;;;4938552;28;20106;-86
2022/07/23 08:02:11;;;;;;;21.13;10.27;;;;;;;;;;4939236;28;20031;-86
2022/07/23 08:04:36;;;;;;;19.45;10.18;;;;;;;;;;4943703;28;20043;-87
2022/07/23 08:07:02;;;;;;;20.45;10.00;;;;;;;;;;4942250;28;20716;-86
2022/07/23 08:09:27;;;;;;;19.27;10.63;;;;;;;;;;4942600;28;20035;-85
2022/07/23 08:11:53;;;;;;;20.13;11.65;;;;;;;;;;4946197;28;20029;-85
2022/07/23 08:14:18;;;;;;;19.95;10.48;;;;;;;;;;4943089;28;20051;-87
2022/07/23 08:16:44;;;;;;;24.65;11.57;;;;;;;;;;4942698;28;20074;-84
2022/07/23 08:19:09;;;;;;;19.52;10.48;;;;;;;;;;4940513;28;20090;-85
2022/07/23 08:21:34;;;;;;;16.88;9.25;;;;;;;;;;4946244;28;20497;-85
2022/07/23 08:24:00;;;;;;;17.38;10.13;;;;;;;;;;4963934;28;20046;-85
2022/07/23 08:26:25;;;;;;;17.98;9.35;;;;;;;;;;4946808;28;20039;-83
2022/07/23 08:28:51;;;;;;;21.35;10.30;;;;;;;;;;4947493;28;20049;-85
2022/07/23 08:31:17;;;;;;;17.55;9.50;;;;;;;;;;4946193;28;20098;-85
2022/07/23 08:33:42;;;;;;;21.20;10.95;;;;;;;;;;4945817;28;20529;-86
2022/07/23 08:36:08;;;;;;;18.33;8.93;;;;;;;;;;4948647;28;20035;-86
2022/07/23 08:38:35;;;;;;;18.77;9.75;;;;;;;;;;4946227;28;20051;-86
2022/07/23 08:41:01;;;;;;;16.40;9.68;;;;;;;;;;4959599;28;20113;-84
2022/07/23 08:43:30;;;;;;;25.65;9.63;;;;;;;;;;4943380;28;20062;-85
2022/07/23 08:45:57;;;;;;;17.42;9.40;;;;;;;;;;4945816;28;20046;-86
2022/07/23 08:48:25;;;;;;;18.73;9.07;;;;;;;;;;4944358;28;20137;-84
2022/07/23 08:50:56;;;;;;;15.05;8.77;;;;;;;;;;4944750;28;20029;-86
2022/07/23 08:53:23;;;;;;;14.90;8.85;;;;;;;;;;4949902;28;20085;-85
2022/07/23 08:55:51;;;;;;;16.67;9.13;;;;;;;;;;4943840;29;20042;-83
2022/07/23 08:58:17;;;;;;;19.85;9.25;;;;;;;;;;4959679;28;20138;-85
2022/07/23 09:00:43;;;;;;;17.83;9.02;;;;;;;;;;4942532;28;20655;-84
2022/07/23 09:03:21;;;;;;;16.08;9.48;;;;;;;;;;4948743;29;20031;-85
2022/07/23 09:05:48;;;;;;;19.83;9.75;;;;;;;;;;4943773;28;20074;-85
2022/07/23 09:08:15;;;;;;;18.20;8.98;;;;;;;;;;4941433;28;20442;-87
2022/07/23 09:10:57;;;;;;;14.30;8.20;;;;;;;;;;4956354;28;20041;-87
2022/07/23 09:13:24;;;;;;;17.27;9.27;;;;;;;;;;4954227;28;20043;-89
2022/07/23 09:15:51;;;;;;;13.52;8.52;;;;;;;;;;4947462;28;20123;-89
2022/07/23 09:18:17;;;;;;;15.57;8.18;;;;;;;;;;4948095;28;20042;-92
2022/07/23 09:20:46;;;;;;;15.05;8.23;;;;;;;;;;4949597;28;20051;-90
2022/07/23 09:23:11;;;;;;;15.05;7.88;;;;;;;;;;4947904;28;20040;-91
2022/07/23 09:25:37;;;;;;;12.95;7.78;;;;;;;;;;4947174;28;20107;-90
2022/07/23 09:28:02;;;;;;;17.63;8.02;;;;;;;;;;4952841;28;20062;-89
2022/07/23 09:30:30;;;;;;;13.63;7.70;;;;;;;;;;4948398;28;20027;-88
2022/07/23 09:33:06;;;;;;;15.15;7.63;;;;;;;;;;4945605;28;20035;-89
2022/07/23 09:35:55;;;;;;;17.42;7.60;;;;;;;;;;4954797;28;20079;-91
2022/07/23 09:38:23;;;;;;;13.35;8.00;;;;;;;;;;4967141;28;20042;-91
2022/07/23 09:41:07;;;;;;;14.95;7.63;;;;;;;;;;4983852;28;20054;-92
2022/07/23 09:43:33;;;;;;;12.75;6.97;;;;;;;;;;4968075;28;20338;-91
2022/07/23 09:46:23;;;;;;;10.65;6.30;;;;;;;;;;4965512;28;20035;-92
2022/07/23 09:48:48;;;;;;;13.75;7.70;;;;;;;;;;4961238;28;20395;-91
2022/07/23 09:51:18;;;;;;;13.02;7.15;;;;;;;;;;4968565;28;20038;-92
2022/07/23 09:53:43;;;;;;;12.80;6.72;;;;;;;;;;4965604;28;20039;-92
2022/07/23 09:56:10;;;;;;;14.15;7.10;;;;;;;;;;4951343;28;20054;-92
2022/07/23 09:58:49;;;;;;;13.63;7.20;;;;;;;;;;4949917;28;20063;-91
2022/07/23 10:01:15;;;;;;;13.45;6.88;;;;;;;;;;4950859;28;20039;-91
2022/07/23 10:03:42;;;;;;;14.70;6.57;;;;;;;;;;4947825;28;20039;-92
2022/07/23 10:06:13;;;;;;;13.02;7.20;;;;;;;;;;4953911;28;20023;-94
2022/07/23 10:08:46;;;;;;;12.65;6.68;;;;;;;;;;4948416;28;20195;-93
2022/07/23 10:11:14;;;;;;;9.93;6.07;;;;;;;;;;4979291;28;20054;-94
2022/07/23 10:13:57;;;;;;;9.85;6.13;;;;;;;;;;4960906;28;20043;-94
2022/07/23 10:16:23;;;;;;;12.25;6.63;;;;;;;;;;4959266;28;20506;-94
2022/07/23 10:18:49;;;;;;;12.95;6.25;;;;;;;;;;4957960;28;20044;-93
2022/07/23 10:21:21;;;;;;;10.43;5.40;;;;;;;;;;4962499;28;20031;-91
2022/07/23 10:24:04;;;;;;;9.15;4.85;;;;;;;;;;4959437;28;20038;-95
2022/07/23 10:26:52;;;;;;;11.23;5.78;;;;;;;;;;4962544;28;20047;-92
2022/07/23 10:29:30;;;;;;;9.18;6.00;;;;;;;;;;4940207;28;20447;-93
2022/07/23 10:31:56;;;;;;;7.82;4.97;;;;;;;;;;4954955;28;20043;-92
2022/07/23 10:34:44;;;;;;;8.18;4.78;;;;;;;;;;4950534;28;20085;-93
2022/07/23 10:37:25;;;;;;;6.65;4.30;;;;;;;;;;4960974;28;20039;-91
2022/07/23 10:40:13;;;;;;;11.25;6.10;;;;;;;;;;4961324;28;20097;-91
2022/07/23 10:42:40;;;;;;;9.85;5.10;;;;;;;;;;4945410;28;20041;-94
2022/07/23 10:45:38;;;;;;;9.32;5.03;;;;;;;;;;4963671;28;20028;-95
2022/07/23 10:48:26;;;;;;;7.80;4.50;;;;;;;;;;4942506;28;20050;-94
2022/07/23 10:51:27;;;;;;;8.00;5.10;;;;;;;;;;4947933;28;20578;-95
2022/07/23 10:53:58;;;;;;;7.40;4.72;;;;;;;;;;4933841;28;20192;-93
2022/07/23 10:57:09;;;;;;;8.85;4.63;;;;;;;;;;4946686;28;21520;-93
2022/07/23 11:00:11;;;;;;;9.02;5.20;;;;;;;;;;4945182;28;20084;-92
2022/07/23 11:02:38;;;;;;;7.93;4.40;;;;;;;;;;4942289;28;20078;-93
2022/07/23 11:05:30;;;;;;;12.60;5.10;;;;;;;;;;4938425;28;20144;-96
2022/07/23 11:08:05;;;;;;;7.45;4.70;;;;;;;;;;4949939;28;20090;-95
2022/07/23 11:10:41;;;;;;;7.20;4.47;;;;;;;;;;4967460;28;20051;-95
2022/07/23 11:13:22;;;;;;;7.18;4.57;;;;;;;;;;4946464;28;20121;-91
2022/07/23 11:16:12;;;;;;;8.00;4.25;;;;;;;;;;4966981;28;20046;-94
2022/07/23 11:18:40;;;;;;;8.27;4.72;;;;;;;;;;4942517;28;20411;-87
2022/07/23 11:21:21;;;;;;;8.02;4.50;;;;;;;;;;4945821;28;20171;-95
2022/07/23 11:24:00;;;;;;;7.03;3.90;;;;;;;;;;4941031;28;20139;-96
2022/07/23 11:26:41;;;;;;;7.18;4.03;;;;;;;;;;4964421;28;20031;-94
2022/07/23 11:29:25;;;;;;;8.35;4.50;;;;;;;;;;4946110;28;20122;-93
2022/07/23 11:32:17;;;;;;;7.43;4.80;;;;;;;;;;4944389;28;20047;-90
2022/07/23 11:34:48;;;;;;;8.52;4.03;;;;;;;;;;4956417;28;20039;-90
2022/07/23 11:37:37;;;;;;;8.18;3.90;;;;;;;;;;4962175;28;20816;-92
2022/07/23 11:40:14;;;;;;;6.63;4.28;;;;;;;;;;4942491;28;20062;-92
2022/07/23 11:42:53;;;;;;;10.23;4.32;;;;;;;;;;4945920;28;20031;-92
2022/07/23 11:45:18;;;;;;;6.15;4.25;;;;;;;;;;4963389;28;20030;-90
2022/07/23 11:47:44;;;;;;;6.80;4.10;;;;;;;;;;4945172;28;20043;-89
2022/07/23 11:50:10;;;;;;;5.90;4.18;;;;;;;;;;4947416;28;20046;-91
2022/07/23 11:52:39;;;;;;;7.00;4.35;;;;;;;;;;4947265;28;20039;-89
2022/07/23 11:55:07;;;;;;;9.70;4.78;;;;;;;;;;4943338;28;20041;-89
2022/07/23 11:57:39;;;;;;;8.50;4.68;;;;;;;;;;4946605;28;20050;-96
2022/07/23 12:00:12;;;;;;;7.13;4.50;;;;;;;;;;4952384;28;20085;-89
2022/07/23 12:02:40;;;;;;;6.40;4.50;;;;;;;;;;4946013;29;20134;-91
2022/07/23 12:05:12;;;;;;;7.70;4.38;;;;;;;;;;4945238;28;20067;-93
2022/07/23 12:07:43;;;;;;;6.47;4.63;;;;;;;;;;4960528;28;20042;-95
2022/07/23 12:10:15;;;;;;;6.65;3.72;;;;;;;;;;4946006;28;20122;-94
2022/07/23 12:12:43;;;;;;;5.15;4.07;;;;;;;;;;4947051;28;20019;-96
2022/07/23 12:15:11;;;;;;;8.85;5.07;;;;;;;;;;4962733;28;20027;-95
2022/07/23 12:17:40;;;;;;;8.60;4.60;;;;;;;;;;4945613;28;20526;-91
2022/07/23 12:20:09;;;;;;;8.73;4.63;;;;;;;;;;4934512;28;20096;-92
2022/07/23 12:22:43;;;;;;;6.82;4.45;;;;;;;;;;4946293;28;20526;-94
2022/07/23 12:25:20;;;;;;;7.35;4.50;;;;;;;;;;4962631;28;20533;-90
2022/07/23 12:27:46;;;;;;;9.20;4.72;;;;;;;;;;4945025;28;20042;-92
2022/07/23 12:30:25;;;;;;;7.72;4.68;;;;;;;;;;4947121;29;20034;-93
2022/07/23 12:32:59;;;;;;;9.27;4.13;;;;;;;;;;4946531;29;20070;-94
2022/07/23 12:35:31;;;;;;;6.50;4.68;;;;;;;;;;4950178;28;20178;-95
2022/07/23 12:38:01;;;;;;;7.82;4.47;;;;;;;;;;4954680;28;20186;-93
2022/07/23 12:40:42;;;;;;;6.20;4.22;;;;;;;;;;4944659;28;21019;-95
2022/07/23 12:43:18;;;;;;;6.60;4.50;;;;;;;;;;4951199;28;20054;-94
2022/07/23 12:45:49;;;;;;;7.18;4.55;;;;;;;;;;4946738;28;20031;-95
2022/07/23 12:48:22;;;;;;;5.68;4.15;;;;;;;;;;4946961;28;20049;-93
2022/07/23 12:50:57;;;;;;;;;;;;;;;;;;4963623;28;20062;-95
2022/07/23 12:53:23;;;;;;;6.13;3.95;;;;;;;;;;4960556;28;19926;-94
2022/07/23 12:55:50;;;;;;;7.72;4.35;;;;;;;;;;4949606;28;20046;-94
2022/07/23 12:58:19;;;;;;;7.43;4.82;;;;;;;;;;4962567;28;20047;-94
2022/07/23 13:01:03;;;;;;;6.35;4.45;;;;;;;;;;4959904;28;20110;-93
2022/07/23 13:03:41;;;;;;;6.70;4.28;;;;;;;;;;4946843;28;20093;-93
2022/07/23 13:06:13;;;;;;;5.97;4.05;;;;;;;;;;4947259;28;20043;-89
2022/07/23 13:08:44;;;;;;;9.85;4.40;;;;;;;;;;4952027;28;20046;-92
2022/07/23 13:11:11;;;;;;;9.10;4.45;;;;;;;;;;4946560;28;20083;-94
2022/07/23 13:13:37;;;;;;;8.02;4.22;;;;;;;;;;4945311;28;20039;-96
2022/07/23 13:16:02;;;;;;;5.63;4.18;;;;;;;;;;4948133;28;20062;-94
2022/07/23 13:18:29;;;;;;;7.30;4.45;;;;;;;;;;4938528;28;20059;-96
2022/07/23 13:20:57;;;;;;;10.02;5.30;;;;;;;;;;4954103;28;20039;-95
2022/07/23 13:23:24;;;;;;;9.07;4.47;;;;;;;;;;4956324;28;20102;-90
2022/07/23 13:25:50;;;;;;;8.95;4.28;;;;;;;;;;4942030;28;20102;-89
2022/07/23 13:28:17;;;;;;;14.05;4.82;;;;;;;;;;4944757;28;20055;-92
2022/07/23 13:30:45;;;;;;;5.55;4.22;;;;;;;;;;4948464;28;20853;-94
2022/07/23 13:33:11;;;;;;;11.70;4.65;;;;;;;;;;4945668;28;20620;-87
2022/07/23 13:35:37;;;;;;;12.60;4.55;;;;;;;;;;4947460;28;20774;-87
2022/07/23 13:38:09;;;;;;;7.15;4.53;;;;;;;;;;4950126;28;20059;-92
2022/07/23 13:40:42;;;;;;;8.50;4.78;;;;;;;;;;4947318;28;20051;-87
2022/07/23 13:43:09;;;;;;;6.20;4.18;;;;;;;;;;4947247;28;20063;-90
2022/07/23 13:45:35;;;;;;;6.55;4.57;;;;;;;;;;4945697;28;20067;-86
2022/07/23 13:48:02;;;;;;;5.78;4.22;;;;;;;;;;4960894;28;20027;-87
2022/07/23 13:50:28;;;;;;;5.68;4.47;;;;;;;;;;4949601;28;20179;-86
2022/07/23 13:52:53;;;;;;;5.80;4.35;;;;;;;;;;4948179;28;20140;-87
2022/07/23 13:55:19;;;;;;;5.68;4.20;;;;;;;;;;4947134;28;20050;-88
2022/07/23 13:57:45;;;;;;;6.72;4.15;;;;;;;;;;4968987;28;20035;-86
2022/07/23 14:00:12;;;;;;;7.43;4.28;;;;;;;;;;4970867;28;20022;-89
2022/07/23 14:02:39;;;;;;;7.50;4.50;;;;;;;;;;4974896;28;20043;-86
2022/07/23 14:05:07;;;;;;;4.70;4.20;;;;;;;;;;4949694;28;20518;-89
2022/07/23 14:07:34;;;;;;;6.28;4.10;;;;;;;;;;4959435;28;20125;-90
2022/07/23 14:10:00;;;;;;;5.20;4.50;;;;;;;;;;4948511;28;20038;-90
2022/07/23 14:12:26;;;;;;;8.25;4.40;;;;;;;;;;4960163;28;20514;-86
2022/07/23 14:14:51;;;;;;;7.68;4.70;;;;;;;;;;4948133;28;20055;-89
2022/07/23 14:17:17;;;;;;;5.00;4.35;;;;;;;;;;4943228;28;20147;-86
2022/07/23 14:19:43;;;;;;;7.95;4.47;;;;;;;;;;4946397;28;20077;-88
2022/07/23 14:22:08;;;;;;;6.13;4.57;;;;;;;;;;4959893;28;20462;-90
2022/07/23 14:24:34;;;;;;;7.38;4.63;;;;;;;;;;4945295;28;20038;-88
2022/07/23 14:27:01;;;;;;;12.02;4.57;;;;;;;;;;4945602;28;20031;-91
2022/07/23 14:29:27;;;;;;;7.90;4.18;;;;;;;;;;4947156;28;20047;-94
2022/07/23 14:31:53;;;;;;;5.28;4.32;;;;;;;;;;4964807;28;20039;-94
2022/07/23 14:34:19;;;;;;;5.40;4.10;;;;;;;;;;4946756;28;20161;-93